sensor_id;sensor_type;location;lat;lon;timestamp;noise_LAeq;noise_LA_min;noise_LA_max;noise_LA01;noise_LA95
76261;Laerm;65076;52.362;6.588;2023-06-22T00:00:31;37.23;33.56;46.08;;
76261;Laerm;65076;52.362;6.588;2023-06-22T00:02:59;36.67;33.31;41.66;;
76261;Laerm;65076;52.362;6.588;2023-06-22T00:05:27;37.53;33.68;41.77;;
76261;Laerm;65076;52.362;6.588;2023-06-22T00:07:55;39.73;33.70;54.98;;
76261;Laerm;65076;52.362;6.588;2023-06-22T00:10:23;36.74;33.04;42.94;;
76261;Laerm;65076;52.362;6.588;2023-06-22T00:12:52;37.02;32.99;43.31;;
76261;Laerm;65076;52.362;6.588;2023-06-22T00:15:20;37.70;33.87;45.16;;
76261;Laerm;65076;52.362;6.588;2023-06-22T00:17:49;37.11;33.16;43.00;;
76261;Laerm;65076;52.362;6.588;2023-06-22T00:20:17;47.76;34.28;68.74;;
76261;Laerm;65076;52.362;6.588;2023-06-22T00:22:45;66.22;37.95;81.55;;
76261;Laerm;65076;52.362;6.588;2023-06-22T00:25:14;39.71;34.59;46.50;;
76261;Laerm;65076;52.362;6.588;2023-06-22T00:27:42;38.96;34.80;43.64;;
76261;Laerm;65076;52.362;6.588;2023-06-22T00:30:13;38.18;33.61;50.02;;
76261;Laerm;65076;52.362;6.588;2023-06-22T00:32:41;37.41;33.94;41.56;;
76261;Laerm;65076;52.362;6.588;2023-06-22T00:35:10;37.00;33.07;41.76;;
76261;Laerm;65076;52.362;6.588;2023-06-22T00:37:39;36.54;33.12;42.45;;
76261;Laerm;65076;52.362;6.588;2023-06-22T00:40:10;58.99;33.27;78.73;;
76261;Laerm;65076;52.362;6.588;2023-06-22T00:42:38;36.49;32.28;47.50;;
76261;Laerm;65076;52.362;6.588;2023-06-22T00:45:07;38.23;33.60;64.06;;
76261;Laerm;65076;52.362;6.588;2023-06-22T00:47:38;44.33;33.85;60.82;;
76261;Laerm;65076;52.362;6.588;2023-06-22T00:50:07;37.03;33.13;43.99;;
76261;Laerm;65076;52.362;6.588;2023-06-22T00:52:37;36.34;32.19;44.72;;
76261;Laerm;65076;52.362;6.588;2023-06-22T00:55:10;35.85;32.22;48.23;;
76261;Laerm;65076;52.362;6.588;2023-06-22T00:57:38;49.22;32.94;68.60;;
76261;Laerm;65076;52.362;6.588;2023-06-22T01:00:08;36.31;32.24;48.49;;
76261;Laerm;65076;52.362;6.588;2023-06-22T01:02:39;36.87;32.96;47.40;;
76261;Laerm;65076;52.362;6.588;2023-06-22T01:05:08;37.57;32.86;43.98;;
76261;Laerm;65076;52.362;6.588;2023-06-22T01:07:42;37.48;33.54;43.78;;
76261;Laerm;65076;52.362;6.588;2023-06-22T01:10:23;35.68;32.26;41.24;;
76261;Laerm;65076;52.362;6.588;2023-06-22T01:12:58;36.21;33.09;41.17;;
76261;Laerm;65076;52.362;6.588;2023-06-22T01:15:35;36.48;32.76;42.74;;
76261;Laerm;65076;52.362;6.588;2023-06-22T01:18:09;37.73;33.14;46.99;;
76261;Laerm;65076;52.362;6.588;2023-06-22T01:20:39;38.99;34.73;45.67;;
76261;Laerm;65076;52.362;6.588;2023-06-22T01:23:20;39.27;34.31;45.52;;
76261;Laerm;65076;52.362;6.588;2023-06-22T01:26:06;37.81;33.53;47.94;;
76261;Laerm;65076;52.362;6.588;2023-06-22T01:28:43;38.74;33.60;46.34;;
76261;Laerm;65076;52.362;6.588;2023-06-22T01:31:16;38.66;33.39;46.65;;
76261;Laerm;65076;52.362;6.588;2023-06-22T01:33:50;39.58;34.06;46.76;;
76261;Laerm;65076;52.362;6.588;2023-06-22T01:36:21;38.64;33.95;46.11;;
76261;Laerm;65076;52.362;6.588;2023-06-22T01:38:51;38.96;33.78;46.91;;
76261;Laerm;65076;52.362;6.588;2023-06-22T01:41:20;39.31;32.61;48.00;;
76261;Laerm;65076;52.362;6.588;2023-06-22T01:43:51;40.56;33.37;48.70;;
76261;Laerm;65076;52.362;6.588;2023-06-22T01:46:21;40.31;32.74;48.82;;
76261;Laerm;65076;52.362;6.588;2023-06-22T01:48:50;40.39;32.61;49.95;;
76261;Laerm;65076;52.362;6.588;2023-06-22T01:51:19;40.88;33.58;49.64;;
76261;Laerm;65076;52.362;6.588;2023-06-22T01:53:47;40.64;33.15;49.46;;
76261;Laerm;65076;52.362;6.588;2023-06-22T01:56:17;41.09;33.19;50.04;;
76261;Laerm;65076;52.362;6.588;2023-06-22T01:58:50;41.31;34.01;49.61;;
76261;Laerm;65076;52.362;6.588;2023-06-22T02:01:28;43.06;34.60;53.24;;
76261;Laerm;65076;52.362;6.588;2023-06-22T02:04:06;44.78;34.55;55.55;;
76261;Laerm;65076;52.362;6.588;2023-06-22T02:06:42;45.11;35.73;56.81;;
76261;Laerm;65076;52.362;6.588;2023-06-22T02:09:15;46.30;35.44;62.07;;
76261;Laerm;65076;52.362;6.588;2023-06-22T02:11:46;46.27;34.32;62.08;;
76261;Laerm;65076;52.362;6.588;2023-06-22T02:14:17;49.56;34.23;66.17;;
76261;Laerm;65076;52.362;6.588;2023-06-22T02:16:46;46.72;35.54;64.77;;
76261;Laerm;65076;52.362;6.588;2023-06-22T02:19:14;46.40;35.25;62.16;;
76261;Laerm;65076;52.362;6.588;2023-06-22T02:21:45;46.68;36.15;60.62;;
76261;Laerm;65076;52.362;6.588;2023-06-22T02:24:13;43.09;36.41;52.61;;
76261;Laerm;65076;52.362;6.588;2023-06-22T02:26:42;46.49;36.45;62.70;;
76261;Laerm;65076;52.362;6.588;2023-06-22T02:29:12;45.30;35.45;62.39;;
76261;Laerm;65076;52.362;6.588;2023-06-22T02:31:41;50.92;35.19;73.15;;
76261;Laerm;65076;52.362;6.588;2023-06-22T02:34:09;43.14;35.72;56.57;;
76261;Laerm;65076;52.362;6.588;2023-06-22T02:36:45;44.96;35.73;58.37;;
76261;Laerm;65076;52.362;6.588;2023-06-22T02:39:19;45.08;35.21;60.09;;
76261;Laerm;65076;52.362;6.588;2023-06-22T02:41:49;46.89;35.78;58.86;;
76261;Laerm;65076;52.362;6.588;2023-06-22T02:44:19;47.15;36.75;61.18;;
76261;Laerm;65076;52.362;6.588;2023-06-22T02:46:48;48.49;36.61;68.90;;
76261;Laerm;65076;52.362;6.588;2023-06-22T02:49:16;46.60;36.56;63.72;;
76261;Laerm;65076;52.362;6.588;2023-06-22T02:51:47;45.82;37.35;64.06;;
76261;Laerm;65076;52.362;6.588;2023-06-22T02:54:15;47.47;36.93;64.05;;
76261;Laerm;65076;52.362;6.588;2023-06-22T02:56:44;53.11;35.12;74.23;;
76261;Laerm;65076;52.362;6.588;2023-06-22T02:59:12;41.62;35.48;56.91;;
76261;Laerm;65076;52.362;6.588;2023-06-22T03:01:40;41.32;35.83;53.25;;
76261;Laerm;65076;52.362;6.588;2023-06-22T03:04:09;64.90;36.66;80.26;;
76261;Laerm;65076;52.362;6.588;2023-06-22T03:06:38;42.24;35.94;55.67;;
76261;Laerm;65076;52.362;6.588;2023-06-22T03:09:07;42.89;35.84;56.59;;
76261;Laerm;65076;52.362;6.588;2023-06-22T03:11:35;56.93;36.81;74.43;;
76261;Laerm;65076;52.362;6.588;2023-06-22T03:14:03;45.09;36.52;59.35;;
76261;Laerm;65076;52.362;6.588;2023-06-22T03:16:31;45.78;36.76;62.44;;
76261;Laerm;65076;52.362;6.588;2023-06-22T03:19:00;46.20;37.20;65.36;;
76261;Laerm;65076;52.362;6.588;2023-06-22T03:21:29;51.02;37.01;67.96;;
76261;Laerm;65076;52.362;6.588;2023-06-22T03:23:58;52.02;37.33;72.32;;
76261;Laerm;65076;52.362;6.588;2023-06-22T03:26:27;42.63;37.46;59.30;;
76261;Laerm;65076;52.362;6.588;2023-06-22T03:28:55;42.16;38.26;46.56;;
76261;Laerm;65076;52.362;6.588;2023-06-22T03:31:23;47.33;37.27;69.01;;
76261;Laerm;65076;52.362;6.588;2023-06-22T03:33:51;42.04;37.69;49.78;;
76261;Laerm;65076;52.362;6.588;2023-06-22T03:36:20;43.65;38.15;52.70;;
76261;Laerm;65076;52.362;6.588;2023-06-22T03:38:51;55.25;39.38;73.43;;
76261;Laerm;65076;52.362;6.588;2023-06-22T03:41:19;57.04;40.03;74.01;;
76261;Laerm;65076;52.362;6.588;2023-06-22T03:43:47;49.21;37.82;66.07;;
76261;Laerm;65076;52.362;6.588;2023-06-22T03:46:15;45.87;38.71;57.37;;
76261;Laerm;65076;52.362;6.588;2023-06-22T03:48:43;47.80;39.15;62.62;;
76261;Laerm;65076;52.362;6.588;2023-06-22T03:51:12;46.29;39.50;61.60;;
76261;Laerm;65076;52.362;6.588;2023-06-22T03:53:39;54.09;40.78;70.64;;
76261;Laerm;65076;52.362;6.588;2023-06-22T03:56:09;46.49;39.49;58.31;;
76261;Laerm;65076;52.362;6.588;2023-06-22T03:58:37;51.52;38.65;71.88;;
76261;Laerm;65076;52.362;6.588;2023-06-22T04:01:10;52.54;40.77;70.96;;
76261;Laerm;65076;52.362;6.588;2023-06-22T04:03:38;46.80;39.20;59.74;;
76261;Laerm;65076;52.362;6.588;2023-06-22T04:06:07;45.32;39.24;55.60;;
76261;Laerm;65076;52.362;6.588;2023-06-22T04:08:35;58.09;40.44;77.45;;
76261;Laerm;65076;52.362;6.588;2023-06-22T04:11:03;58.95;40.88;73.70;;
76261;Laerm;65076;52.362;6.588;2023-06-22T04:13:33;52.20;39.85;66.74;;
76261;Laerm;65076;52.362;6.588;2023-06-22T04:16:01;48.11;41.02;61.50;;
76261;Laerm;65076;52.362;6.588;2023-06-22T04:18:29;53.13;41.75;69.44;;
76261;Laerm;65076;52.362;6.588;2023-06-22T04:20:57;48.91;41.42;63.79;;
76261;Laerm;65076;52.362;6.588;2023-06-22T04:23:25;47.86;41.44;61.34;;
76261;Laerm;65076;52.362;6.588;2023-06-22T04:25:53;54.40;41.70;68.49;;
76261;Laerm;65076;52.362;6.588;2023-06-22T04:28:23;49.69;40.15;62.04;;
76261;Laerm;65076;52.362;6.588;2023-06-22T04:30:55;55.31;42.89;70.21;;
76261;Laerm;65076;52.362;6.588;2023-06-22T04:33:25;50.32;42.48;61.39;;
76261;Laerm;65076;52.362;6.588;2023-06-22T04:35:53;54.05;42.67;72.95;;
76261;Laerm;65076;52.362;6.588;2023-06-22T04:38:21;63.51;43.72;76.62;;
76261;Laerm;65076;52.362;6.588;2023-06-22T04:40:49;62.58;43.19;77.10;;
76261;Laerm;65076;52.362;6.588;2023-06-22T04:43:17;51.58;41.30;63.68;;
76261;Laerm;65076;52.362;6.588;2023-06-22T04:45:45;53.16;43.86;66.50;;
76261;Laerm;65076;52.362;6.588;2023-06-22T04:48:20;51.91;42.76;65.85;;
76261;Laerm;65076;52.362;6.588;2023-06-22T04:50:49;51.17;42.31;62.10;;
76261;Laerm;65076;52.362;6.588;2023-06-22T04:53:16;53.74;42.62;68.10;;
76261;Laerm;65076;52.362;6.588;2023-06-22T04:55:45;57.79;42.84;75.86;;
76261;Laerm;65076;52.362;6.588;2023-06-22T04:58:15;53.02;42.84;66.79;;
76261;Laerm;65076;52.362;6.588;2023-06-22T05:00:46;55.01;43.35;70.79;;
76261;Laerm;65076;52.362;6.588;2023-06-22T05:03:17;55.91;42.59;69.63;;
76261;Laerm;65076;52.362;6.588;2023-06-22T05:05:48;53.00;42.17;64.03;;
76261;Laerm;65076;52.362;6.588;2023-06-22T05:08:16;60.43;44.42;75.88;;
76261;Laerm;65076;52.362;6.588;2023-06-22T05:10:44;53.23;42.20;62.33;;
76261;Laerm;65076;52.362;6.588;2023-06-22T05:13:31;60.88;43.25;75.72;;
76261;Laerm;65076;52.362;6.588;2023-06-22T05:15:59;67.63;43.55;81.56;;
76261;Laerm;65076;52.362;6.588;2023-06-22T05:18:30;52.45;42.01;61.14;;
76261;Laerm;65076;52.362;6.588;2023-06-22T05:21:00;56.43;43.51;70.48;;
76261;Laerm;65076;52.362;6.588;2023-06-22T05:23:28;56.32;44.06;71.20;;
76261;Laerm;65076;52.362;6.588;2023-06-22T05:25:56;61.02;42.75;80.58;;
76261;Laerm;65076;52.362;6.588;2023-06-22T05:28:25;53.50;42.92;66.19;;
76261;Laerm;65076;52.362;6.588;2023-06-22T05:30:53;58.03;43.95;72.64;;
76261;Laerm;65076;52.362;6.588;2023-06-22T05:33:22;54.19;42.76;67.69;;
76261;Laerm;65076;52.362;6.588;2023-06-22T05:35:50;56.40;42.93;68.05;;
76261;Laerm;65076;52.362;6.588;2023-06-22T05:38:20;61.15;42.21;76.62;;
76261;Laerm;65076;52.362;6.588;2023-06-22T05:40:48;59.57;44.73;77.20;;
76261;Laerm;65076;52.362;6.588;2023-06-22T05:43:16;55.41;43.59;65.94;;
76261;Laerm;65076;52.362;6.588;2023-06-22T05:45:44;55.81;42.12;67.22;;
76261;Laerm;65076;52.362;6.588;2023-06-22T05:48:13;55.45;44.22;68.95;;
76261;Laerm;65076;52.362;6.588;2023-06-22T05:50:41;57.78;43.59;73.22;;
76261;Laerm;65076;52.362;6.588;2023-06-22T05:53:15;57.38;44.98;73.63;;
76261;Laerm;65076;52.362;6.588;2023-06-22T05:55:45;58.93;43.15;75.93;;
76261;Laerm;65076;52.362;6.588;2023-06-22T05:58:13;54.01;41.89;63.97;;
76261;Laerm;65076;52.362;6.588;2023-06-22T06:00:45;56.45;43.31;68.40;;
76261;Laerm;65076;52.362;6.588;2023-06-22T06:03:13;54.26;42.91;62.89;;
76261;Laerm;65076;52.362;6.588;2023-06-22T06:05:44;56.97;43.31;75.11;;
76261;Laerm;65076;52.362;6.588;2023-06-22T06:08:12;60.94;46.43;76.21;;
76261;Laerm;65076;52.362;6.588;2023-06-22T06:10:57;59.54;44.25;74.68;;
76261;Laerm;65076;52.362;6.588;2023-06-22T06:13:25;56.76;41.62;70.84;;
76261;Laerm;65076;52.362;6.588;2023-06-22T06:15:53;54.99;43.57;66.01;;
76261;Laerm;65076;52.362;6.588;2023-06-22T06:18:21;56.41;41.52;73.19;;
76261;Laerm;65076;52.362;6.588;2023-06-22T06:20:49;66.21;42.89;78.61;;
76261;Laerm;65076;52.362;6.588;2023-06-22T06:23:17;54.79;40.84;69.17;;
76261;Laerm;65076;52.362;6.588;2023-06-22T06:25:45;58.35;43.90;70.38;;
76261;Laerm;65076;52.362;6.588;2023-06-22T06:28:15;55.03;44.44;67.55;;
76261;Laerm;65076;52.362;6.588;2023-06-22T06:30:49;59.16;48.56;72.60;;
76261;Laerm;65076;52.362;6.588;2023-06-22T06:33:19;63.92;52.70;92.13;;
76261;Laerm;65076;52.362;6.588;2023-06-22T06:35:59;58.83;44.80;79.61;;
76261;Laerm;65076;52.362;6.588;2023-06-22T06:38:30;58.61;47.49;79.32;;
76261;Laerm;65076;52.362;6.588;2023-06-22T06:41:18;62.77;48.33;75.96;;
76261;Laerm;65076;52.362;6.588;2023-06-22T06:43:49;64.65;47.21;79.68;;
76261;Laerm;65076;52.362;6.588;2023-06-22T06:46:23;56.85;41.32;67.60;;
76261;Laerm;65076;52.362;6.588;2023-06-22T06:48:51;51.33;39.00;65.05;;
76261;Laerm;65076;52.362;6.588;2023-06-22T06:51:19;57.56;44.01;71.22;;
76261;Laerm;65076;52.362;6.588;2023-06-22T06:53:47;57.28;41.67;69.03;;
76261;Laerm;65076;52.362;6.588;2023-06-22T06:56:15;58.81;44.45;74.71;;
76261;Laerm;65076;52.362;6.588;2023-06-22T06:58:43;53.38;43.44;70.73;;
76261;Laerm;65076;52.362;6.588;2023-06-22T07:01:13;55.36;47.33;66.74;;
76261;Laerm;65076;52.362;6.588;2023-06-22T07:03:44;53.74;42.38;65.77;;
76261;Laerm;65076;52.362;6.588;2023-06-22T07:06:13;61.25;42.19;83.31;;
76261;Laerm;65076;52.362;6.588;2023-06-22T07:08:43;53.64;41.24;68.33;;
76261;Laerm;65076;52.362;6.588;2023-06-22T07:11:19;60.58;44.34;75.66;;
76261;Laerm;65076;52.362;6.588;2023-06-22T07:13:47;56.66;43.01;68.40;;
76261;Laerm;65076;52.362;6.588;2023-06-22T07:16:17;53.16;42.63;65.08;;
76261;Laerm;65076;52.362;6.588;2023-06-22T07:18:45;61.65;44.01;74.46;;
76261;Laerm;65076;52.362;6.588;2023-06-22T07:21:13;56.16;43.54;71.83;;
76261;Laerm;65076;52.362;6.588;2023-06-22T07:23:41;55.92;42.01;67.96;;
76261;Laerm;65076;52.362;6.588;2023-06-22T07:26:10;55.03;44.87;67.69;;
76261;Laerm;65076;52.362;6.588;2023-06-22T07:28:39;53.86;44.80;70.74;;
76261;Laerm;65076;52.362;6.588;2023-06-22T07:31:08;53.80;40.09;64.95;;
76261;Laerm;65076;52.362;6.588;2023-06-22T07:33:37;52.14;41.31;61.80;;
76261;Laerm;65076;52.362;6.588;2023-06-22T07:36:05;52.36;42.27;65.20;;
76261;Laerm;65076;52.362;6.588;2023-06-22T07:38:34;59.02;42.03;73.53;;
76261;Laerm;65076;52.362;6.588;2023-06-22T07:41:02;52.19;41.71;62.84;;
76261;Laerm;65076;52.362;6.588;2023-06-22T07:43:32;59.83;39.98;75.17;;
76261;Laerm;65076;52.362;6.588;2023-06-22T07:46:01;50.26;39.04;65.15;;
76261;Laerm;65076;52.362;6.588;2023-06-22T07:48:40;51.06;39.89;64.55;;
76261;Laerm;65076;52.362;6.588;2023-06-22T07:51:10;57.92;39.03;74.40;;
76261;Laerm;65076;52.362;6.588;2023-06-22T07:53:40;53.87;39.45;66.34;;
76261;Laerm;65076;52.362;6.588;2023-06-22T07:56:26;59.11;39.60;72.63;;
76261;Laerm;65076;52.362;6.588;2023-06-22T07:58:54;54.21;41.65;69.31;;
76261;Laerm;65076;52.362;6.588;2023-06-22T08:01:24;53.45;39.76;66.32;;
76261;Laerm;65076;52.362;6.588;2023-06-22T08:04:26;51.44;38.56;63.12;;
76261;Laerm;65076;52.362;6.588;2023-06-22T08:06:55;53.53;39.06;66.50;;
76261;Laerm;65076;52.362;6.588;2023-06-22T08:09:23;57.70;41.24;74.41;;
76261;Laerm;65076;52.362;6.588;2023-06-22T08:11:51;58.86;44.49;77.44;;
76261;Laerm;65076;52.362;6.588;2023-06-22T08:14:19;66.59;44.30;81.65;;
76261;Laerm;65076;52.362;6.588;2023-06-22T08:16:47;62.47;45.10;72.17;;
76261;Laerm;65076;52.362;6.588;2023-06-22T08:19:15;60.85;41.59;80.84;;
76261;Laerm;65076;52.362;6.588;2023-06-22T08:24:27;54.60;41.15;69.96;;
76261;Laerm;65076;52.362;6.588;2023-06-22T08:27:07;59.31;40.69;80.44;;
76261;Laerm;65076;52.362;6.588;2023-06-22T08:29:36;54.14;41.30;69.39;;
76261;Laerm;65076;52.362;6.588;2023-06-22T08:32:05;59.71;43.93;74.47;;
76261;Laerm;65076;52.362;6.588;2023-06-22T08:34:34;54.49;41.60;68.03;;
76261;Laerm;65076;52.362;6.588;2023-06-22T08:37:03;57.88;46.33;73.93;;
76261;Laerm;65076;52.362;6.588;2023-06-22T08:39:33;56.76;45.14;72.08;;
76261;Laerm;65076;52.362;6.588;2023-06-22T08:42:02;64.53;45.63;77.79;;
76261;Laerm;65076;52.362;6.588;2023-06-22T08:44:30;59.16;41.52;76.41;;
76261;Laerm;65076;52.362;6.588;2023-06-22T08:46:58;53.00;40.47;62.71;;
76261;Laerm;65076;52.362;6.588;2023-06-22T08:49:33;61.00;41.48;74.62;;
76261;Laerm;65076;52.362;6.588;2023-06-22T08:52:00;55.05;42.05;70.19;;
76261;Laerm;65076;52.362;6.588;2023-06-22T08:54:30;56.89;42.78;72.95;;
76261;Laerm;65076;52.362;6.588;2023-06-22T08:57:16;54.04;40.99;72.86;;
76261;Laerm;65076;52.362;6.588;2023-06-22T08:59:44;53.85;40.55;68.68;;
76261;Laerm;65076;52.362;6.588;2023-06-22T09:02:12;53.44;39.63;63.83;;
76261;Laerm;65076;52.362;6.588;2023-06-22T09:04:40;55.80;40.85;66.18;;
76261;Laerm;65076;52.362;6.588;2023-06-22T09:07:09;57.78;45.11;76.64;;
76261;Laerm;65076;52.362;6.588;2023-06-22T09:09:40;59.74;44.38;77.00;;
76261;Laerm;65076;52.362;6.588;2023-06-22T09:12:09;56.49;45.97;68.97;;
76261;Laerm;65076;52.362;6.588;2023-06-22T09:14:37;52.85;43.97;63.14;;
76261;Laerm;65076;52.362;6.588;2023-06-22T09:17:05;53.29;44.37;62.30;;
76261;Laerm;65076;52.362;6.588;2023-06-22T09:19:33;61.24;47.93;74.21;;
76261;Laerm;65076;52.362;6.588;2023-06-22T09:22:01;54.31;43.75;63.35;;
76261;Laerm;65076;52.362;6.588;2023-06-22T09:24:30;54.35;42.77;69.58;;
76261;Laerm;65076;52.362;6.588;2023-06-22T09:26:59;52.57;43.30;64.93;;
76261;Laerm;65076;52.362;6.588;2023-06-22T09:29:29;55.04;44.41;68.34;;
76261;Laerm;65076;52.362;6.588;2023-06-22T09:32:07;56.26;42.38;70.64;;
76261;Laerm;65076;52.362;6.588;2023-06-22T09:34:35;54.66;43.72;66.83;;
76261;Laerm;65076;52.362;6.588;2023-06-22T09:37:07;57.56;42.86;72.43;;
76261;Laerm;65076;52.362;6.588;2023-06-22T09:39:35;59.35;43.95;75.69;;
76261;Laerm;65076;52.362;6.588;2023-06-22T09:42:06;53.16;42.43;62.64;;
76261;Laerm;65076;52.362;6.588;2023-06-22T09:44:34;53.25;43.47;63.97;;
76261;Laerm;65076;52.362;6.588;2023-06-22T09:47:02;50.95;40.29;63.86;;
76261;Laerm;65076;52.362;6.588;2023-06-22T09:49:30;58.25;45.41;70.64;;
76261;Laerm;65076;52.362;6.588;2023-06-22T09:52:14;55.68;45.35;72.75;;
76261;Laerm;65076;52.362;6.588;2023-06-22T09:54:42;58.20;45.66;72.04;;
76261;Laerm;65076;52.362;6.588;2023-06-22T09:57:11;55.85;41.96;72.88;;
76261;Laerm;65076;52.362;6.588;2023-06-22T09:59:39;53.31;42.31;68.69;;
76261;Laerm;65076;52.362;6.588;2023-06-22T10:02:10;58.44;43.47;72.97;;
76261;Laerm;65076;52.362;6.588;2023-06-22T10:04:38;53.38;41.47;68.30;;
76261;Laerm;65076;52.362;6.588;2023-06-22T10:07:07;54.00;42.49;66.96;;
76261;Laerm;65076;52.362;6.588;2023-06-22T10:09:35;62.23;47.05;87.38;;
76261;Laerm;65076;52.362;6.588;2023-06-22T10:12:15;55.95;42.60;74.66;;
76261;Laerm;65076;52.362;6.588;2023-06-22T10:14:43;51.54;41.48;64.58;;
76261;Laerm;65076;52.362;6.588;2023-06-22T10:17:11;55.31;43.18;70.30;;
76261;Laerm;65076;52.362;6.588;2023-06-22T10:19:39;57.13;44.65;72.82;;
76261;Laerm;65076;52.362;6.588;2023-06-22T10:22:08;54.46;44.57;67.42;;
76261;Laerm;65076;52.362;6.588;2023-06-22T10:24:36;62.78;46.78;73.19;;
76261;Laerm;65076;52.362;6.588;2023-06-22T10:27:26;61.33;40.81;80.07;;
76261;Laerm;65076;52.362;6.588;2023-06-22T10:29:54;53.41;45.07;68.21;;
76261;Laerm;65076;52.362;6.588;2023-06-22T10:32:23;54.27;39.33;63.04;;
76261;Laerm;65076;52.362;6.588;2023-06-22T10:34:52;51.71;36.83;63.92;;
76261;Laerm;65076;52.362;6.588;2023-06-22T10:37:20;56.22;40.94;72.21;;
76261;Laerm;65076;52.362;6.588;2023-06-22T10:39:48;58.07;42.18;76.41;;
76261;Laerm;65076;52.362;6.588;2023-06-22T10:42:16;54.66;39.70;69.16;;
76261;Laerm;65076;52.362;6.588;2023-06-22T10:44:46;65.12;41.69;78.99;;
76261;Laerm;65076;52.362;6.588;2023-06-22T10:47:14;60.05;39.48;75.62;;
76261;Laerm;65076;52.362;6.588;2023-06-22T10:49:42;54.49;37.99;66.40;;
76261;Laerm;65076;52.362;6.588;2023-06-22T10:52:11;57.05;38.21;72.81;;
76261;Laerm;65076;52.362;6.588;2023-06-22T10:54:41;54.16;36.68;66.40;;
76261;Laerm;65076;52.362;6.588;2023-06-22T10:57:09;49.98;40.06;64.11;;
76261;Laerm;65076;52.362;6.588;2023-06-22T10:59:37;57.92;40.31;73.14;;
76261;Laerm;65076;52.362;6.588;2023-06-22T11:02:07;55.08;44.37;71.19;;
76261;Laerm;65076;52.362;6.588;2023-06-22T11:04:35;60.08;44.12;72.17;;
76261;Laerm;65076;52.362;6.588;2023-06-22T11:07:04;56.32;40.21;65.05;;
76261;Laerm;65076;52.362;6.588;2023-06-22T11:09:36;59.75;46.85;73.65;;
76261;Laerm;65076;52.362;6.588;2023-06-22T11:12:06;62.46;48.79;73.33;;
76261;Laerm;65076;52.362;6.588;2023-06-22T11:14:35;62.09;44.46;79.37;;
76261;Laerm;65076;52.362;6.588;2023-06-22T11:17:03;57.20;43.10;71.87;;
76261;Laerm;65076;52.362;6.588;2023-06-22T11:19:33;59.49;45.45;72.54;;
76261;Laerm;65076;52.362;6.588;2023-06-22T11:22:03;60.03;40.82;76.42;;
76261;Laerm;65076;52.362;6.588;2023-06-22T11:24:31;61.42;40.98;75.41;;
76261;Laerm;65076;52.362;6.588;2023-06-22T11:27:00;58.31;42.06;71.17;;
76261;Laerm;65076;52.362;6.588;2023-06-22T11:29:28;60.67;45.89;70.19;;
76261;Laerm;65076;52.362;6.588;2023-06-22T11:32:06;56.41;42.20;69.01;;
76261;Laerm;65076;52.362;6.588;2023-06-22T11:34:37;49.86;39.98;62.71;;
76261;Laerm;65076;52.362;6.588;2023-06-22T11:37:06;52.18;43.09;63.62;;
76261;Laerm;65076;52.362;6.588;2023-06-22T11:39:34;59.61;44.31;75.01;;
76261;Laerm;65076;52.362;6.588;2023-06-22T11:42:13;53.23;42.25;65.68;;
76261;Laerm;65076;52.362;6.588;2023-06-22T11:44:42;55.37;40.44;77.30;;
76261;Laerm;65076;52.362;6.588;2023-06-22T11:47:26;56.20;41.92;76.23;;
76261;Laerm;65076;52.362;6.588;2023-06-22T11:49:55;55.85;40.65;71.67;;
76261;Laerm;65076;52.362;6.588;2023-06-22T11:52:23;51.16;37.51;67.48;;
76261;Laerm;65076;52.362;6.588;2023-06-22T11:54:54;53.26;39.44;66.53;;
76261;Laerm;65076;52.362;6.588;2023-06-22T11:57:54;57.54;39.20;73.69;;
76261;Laerm;65076;52.362;6.588;2023-06-22T12:00:23;53.94;41.63;72.03;;
76261;Laerm;65076;52.362;6.588;2023-06-22T12:02:56;57.85;41.73;84.44;;
76261;Laerm;65076;52.362;6.588;2023-06-22T12:05:28;52.08;39.98;67.44;;
76261;Laerm;65076;52.362;6.588;2023-06-22T12:07:56;53.76;39.01;65.34;;
76261;Laerm;65076;52.362;6.588;2023-06-22T12:10:46;59.96;43.96;75.51;;
76261;Laerm;65076;52.362;6.588;2023-06-22T12:13:14;53.55;41.03;66.67;;
76261;Laerm;65076;52.362;6.588;2023-06-22T12:16:26;55.74;38.08;72.60;;
76261;Laerm;65076;52.362;6.588;2023-06-22T12:18:54;54.95;42.51;69.23;;
76261;Laerm;65076;52.362;6.588;2023-06-22T12:21:24;59.13;42.53;76.98;;
76261;Laerm;65076;52.362;6.588;2023-06-22T12:23:52;55.81;42.77;66.85;;
76261;Laerm;65076;52.362;6.588;2023-06-22T12:26:20;54.17;40.08;67.15;;
76261;Laerm;65076;52.362;6.588;2023-06-22T12:28:48;48.96;40.42;58.96;;
76261;Laerm;65076;52.362;6.588;2023-06-22T12:31:17;55.62;40.61;70.96;;
76261;Laerm;65076;52.362;6.588;2023-06-22T12:33:45;51.71;37.77;65.22;;
76261;Laerm;65076;52.362;6.588;2023-06-22T12:36:13;52.89;40.40;71.50;;
76261;Laerm;65076;52.362;6.588;2023-06-22T12:39:04;61.70;41.72;78.88;;
76261;Laerm;65076;52.362;6.588;2023-06-22T12:41:32;58.79;39.40;76.41;;
76261;Laerm;65076;52.362;6.588;2023-06-22T12:44:05;54.66;41.00;65.68;;
76261;Laerm;65076;52.362;6.588;2023-06-22T12:46:33;52.35;42.22;63.08;;
76261;Laerm;65076;52.362;6.588;2023-06-22T12:49:04;52.43;41.35;71.69;;
76261;Laerm;65076;52.362;6.588;2023-06-22T12:51:32;59.79;40.34;78.11;;
76261;Laerm;65076;52.362;6.588;2023-06-22T12:54:00;60.86;44.57;78.22;;
76261;Laerm;65076;52.362;6.588;2023-06-22T12:57:11;60.36;40.96;79.21;;
76261;Laerm;65076;52.362;6.588;2023-06-22T12:59:39;55.90;42.51;75.14;;
76261;Laerm;65076;52.362;6.588;2023-06-22T13:02:13;64.98;44.35;91.02;;
76261;Laerm;65076;52.362;6.588;2023-06-22T13:04:41;54.80;41.21;67.44;;
76261;Laerm;65076;52.362;6.588;2023-06-22T13:07:10;53.31;42.71;68.07;;
76261;Laerm;65076;52.362;6.588;2023-06-22T13:09:41;61.13;42.05;76.54;;
76261;Laerm;65076;52.362;6.588;2023-06-22T13:12:13;59.59;39.15;77.22;;
76261;Laerm;65076;52.362;6.588;2023-06-22T13:14:48;54.95;41.10;65.66;;
76261;Laerm;65076;52.362;6.588;2023-06-22T13:17:17;62.37;43.16;80.37;;
76261;Laerm;65076;52.362;6.588;2023-06-22T13:19:58;53.64;42.62;64.46;;
76261;Laerm;65076;52.362;6.588;2023-06-22T13:22:29;59.98;43.60;73.18;;
76261;Laerm;65076;52.362;6.588;2023-06-22T13:24:59;58.81;42.27;68.57;;
76261;Laerm;65076;52.362;6.588;2023-06-22T13:27:30;56.47;40.99;68.19;;
76261;Laerm;65076;52.362;6.588;2023-06-22T13:29:58;54.45;43.57;69.82;;
76261;Laerm;65076;52.362;6.588;2023-06-22T13:32:26;56.12;41.11;67.14;;
76261;Laerm;65076;52.362;6.588;2023-06-22T13:34:54;57.05;40.13;69.73;;
76261;Laerm;65076;52.362;6.588;2023-06-22T13:37:22;54.12;41.45;67.76;;
76261;Laerm;65076;52.362;6.588;2023-06-22T13:39:50;60.21;40.77;77.92;;
76261;Laerm;65076;52.362;6.588;2023-06-22T13:42:18;61.16;41.10;76.71;;
76261;Laerm;65076;52.362;6.588;2023-06-22T13:44:48;56.33;40.38;70.50;;
76261;Laerm;65076;52.362;6.588;2023-06-22T13:47:16;54.78;40.97;69.58;;
76261;Laerm;65076;52.362;6.588;2023-06-22T13:49:44;61.96;46.24;78.60;;
76261;Laerm;65076;52.362;6.588;2023-06-22T13:52:12;56.90;44.59;64.95;;
76261;Laerm;65076;52.362;6.588;2023-06-22T13:54:40;57.23;45.45;70.30;;
76261;Laerm;65076;52.362;6.588;2023-06-22T13:57:07;59.80;42.34;74.47;;
76261;Laerm;65076;52.362;6.588;2023-06-22T13:59:35;53.02;42.23;70.78;;
76261;Laerm;65076;52.362;6.588;2023-06-22T14:02:06;59.88;45.97;69.88;;
76261;Laerm;65076;52.362;6.588;2023-06-22T14:04:34;59.09;44.76;75.95;;